createdAt,value
2019-04-22T00:00:47.359Z,12.37
2019-04-22T00:01:50.269Z,12.28
2019-04-22T00:02:57.598Z,12.50
2019-04-22T00:04:02.657Z,12.03
2019-04-22T00:05:10.386Z,13.55
2019-04-22T00:06:25.547Z,11.57
2019-04-22T00:07:28.862Z,14.03
2019-04-22T00:08:30.929Z,12.68
2019-04-22T00:09:38.464Z,10.58
2019-04-22T00:10:40.706Z,10.93
2019-04-22T00:11:51.310Z,13.70
2019-04-22T00:12:47.363Z,15.05
2019-04-22T00:14:47.959Z,13.83
2019-04-22T00:15:47.771Z,12.53
2019-04-22T00:16:58.609Z,12.95
2019-04-22T00:19:19.304Z,11.88
2019-04-22T00:21:14.282Z,14.00
2019-04-22T00:22:15.349Z,11.57
2019-04-22T00:23:13.180Z,10.75
2019-04-22T00:24:17.436Z,11.30
2019-04-22T00:25:31.034Z,14.70
2019-04-22T00:26:23.428Z,12.75
2019-04-22T00:27:29.530Z,12.60
2019-04-22T00:28:30.537Z,12.20
2019-04-22T00:30:33.912Z,12.00
2019-04-22T00:31:45.888Z,12.85
2019-04-22T00:32:55.577Z,14.70
2019-04-22T00:34:06.232Z,12.65
2019-04-22T00:35:07.244Z,11.48
2019-04-22T00:36:08.844Z,11.25
2019-04-22T00:37:17.614Z,12.55
2019-04-22T00:39:22.007Z,11.90
2019-04-22T00:40:30.187Z,10.50
2019-04-22T00:41:30.071Z,14.50
2019-04-22T00:43:33.366Z,14.25
2019-04-22T00:44:41.063Z,13.55
2019-04-22T00:45:44.592Z,12.93
2019-04-22T00:46:46.811Z,13.28
2019-04-22T00:48:00.984Z,13.80
2019-04-22T00:48:57.632Z,11.43
2019-04-22T00:51:04.208Z,13.98
2019-04-22T00:52:03.303Z,12.03
2019-04-22T00:53:07.170Z,13.70
2019-04-22T00:54:01.015Z,12.23
2019-04-22T00:56:10.960Z,11.90
2019-04-22T00:57:15.784Z,14.03
2019-04-22T00:58:16.205Z,10.95
2019-04-22T00:59:17.238Z,12.23
2019-04-22T01:00:24.823Z,11.80
2019-04-22T01:01:23.891Z,12.25
2019-04-22T01:03:40.626Z,10.48
2019-04-22T01:05:40.629Z,16.50
2019-04-22T01:06:41.372Z,13.05
2019-04-22T01:07:45.102Z,13.08
2019-04-22T01:08:53.852Z,11.70
2019-04-22T01:09:51.785Z,9.78
2019-04-22T01:10:57.043Z,14.30
2019-04-22T01:11:55.705Z,11.90
2019-04-22T01:12:57.962Z,14.85
2019-04-22T01:14:01.245Z,11.45
2019-04-22T01:15:10.673Z,10.80
2019-04-22T01:16:13.922Z,12.53
2019-04-22T01:17:05.958Z,11.45
2019-04-22T01:18:09.337Z,13.72
2019-04-22T01:19:19.428Z,10.72
2019-04-22T01:20:29.377Z,13.83
2019-04-22T01:22:21.391Z,10.95
2019-04-22T01:23:27.830Z,13.28
2019-04-22T01:24:26.477Z,12.93
2019-04-22T01:25:29.447Z,13.85
2019-04-22T01:26:36.271Z,11.70
2019-04-22T01:27:36.618Z,11.78
2019-04-22T01:28:39.253Z,14.07
2019-04-22T01:29:42.379Z,13.95
2019-04-22T01:30:44.105Z,14.65
2019-04-22T01:31:40.006Z,11.20
2019-04-22T01:32:45.722Z,10.23
2019-04-22T01:33:53.980Z,10.80
2019-04-22T01:35:05.055Z,10.70
2019-04-22T01:36:08.036Z,10.10
2019-04-22T01:37:07.657Z,12.35
2019-04-22T01:38:17.694Z,13.03
2019-04-22T01:39:25.875Z,13.93
2019-04-22T01:40:34.991Z,12.70
2019-04-22T01:41:42.307Z,12.33
2019-04-22T01:42:43.159Z,12.07
2019-04-22T01:43:40.905Z,12.30
2019-04-22T01:44:40.812Z,13.05
2019-04-22T01:45:45.070Z,12.50
2019-04-22T01:46:55.200Z,13.65
2019-04-22T01:47:49.238Z,12.07
2019-04-22T01:48:57.480Z,14.40
2019-04-22T01:50:02.525Z,13.68
2019-04-22T01:50:54.729Z,13.55
2019-04-22T01:52:15.696Z,12.50
2019-04-22T01:53:06.418Z,12.18
2019-04-22T01:54:20.445Z,14.03
2019-04-22T01:55:22.294Z,11.53
2019-04-22T01:56:13.794Z,12.40
2019-04-22T01:57:15.914Z,14.65
2019-04-22T01:58:20.428Z,16.15
2019-04-22T01:59:15.426Z,12.45
2019-04-22T02:00:17.989Z,12.63
2019-04-22T02:01:32.115Z,14.30
2019-04-22T02:02:36.037Z,13.53
2019-04-22T02:03:44.394Z,12.33
2019-04-22T02:05:35.760Z,13.68
2019-04-22T02:07:48.227Z,12.47
2019-04-22T02:08:53.010Z,12.50
2019-04-22T02:10:54.860Z,13.98
2019-04-22T02:12:00.557Z,12.93
2019-04-22T02:13:00.144Z,12.00
2019-04-22T02:14:04.395Z,12.45
2019-04-22T02:15:06.612Z,12.28
2019-04-22T02:16:15.225Z,12.37
2019-04-22T02:17:19.989Z,13.85
2019-04-22T02:19:22.900Z,14.35
2019-04-22T02:20:24.961Z,11.88
2019-04-22T02:21:21.574Z,14.23
2019-04-22T02:22:51.186Z,13.98
2019-04-22T02:24:39.683Z,14.50
2019-04-22T02:25:40.976Z,12.37
2019-04-22T02:26:41.723Z,13.30
2019-04-22T02:27:46.037Z,11.38
2019-04-22T02:28:47.561Z,14.93
2019-04-22T02:31:20.207Z,14.07
2019-04-22T02:33:30.661Z,13.50
2019-04-22T02:35:24.135Z,13.80
2019-04-22T02:37:21.132Z,14.53
2019-04-22T02:38:34.946Z,15.18
2019-04-22T02:40:41.333Z,12.65
2019-04-22T02:41:31.168Z,13.20
2019-04-22T02:42:24.716Z,15.50
2019-04-22T02:44:35.541Z,15.65
2019-04-22T02:45:56.846Z,13.93
2019-04-22T02:47:56.266Z,12.82
2019-04-22T02:49:53.384Z,13.75
2019-04-22T02:51:06.207Z,14.13
2019-04-22T02:51:52.164Z,14.58
2019-04-22T02:53:03.704Z,12.15
2019-04-22T02:55:07.299Z,13.20
2019-04-22T02:56:25.081Z,13.30
2019-04-22T02:57:27.974Z,14.55
2019-04-22T02:58:35.700Z,12.63
2019-04-22T03:01:29.928Z,14.30
2019-04-22T03:03:50.597Z,13.38
2019-04-22T03:04:32.648Z,14.45
2019-04-22T03:05:53.027Z,13.05
2019-04-22T03:07:55.896Z,11.85
2019-04-22T03:08:55.814Z,14.40
2019-04-22T03:11:15.288Z,14.10
2019-04-22T03:12:09.681Z,12.35
2019-04-22T03:13:00.081Z,14.60
2019-04-22T03:14:15.260Z,12.33
2019-04-22T03:14:59.781Z,13.10
2019-04-22T03:16:17.853Z,14.50
2019-04-22T03:17:17.456Z,15.03
2019-04-22T03:18:20.077Z,11.63
2019-04-22T03:19:26.165Z,12.88
2019-04-22T03:20:14.596Z,14.38
2019-04-22T03:22:24.199Z,16.25
2019-04-22T03:23:45.527Z,13.32
2019-04-22T03:31:43.962Z,15.45
2019-04-22T03:32:52.650Z,14.90
2019-04-22T03:35:41.777Z,14.93
2019-04-22T03:39:12.802Z,12.40
2019-04-22T03:41:15.303Z,15.95
2019-04-22T03:42:05.573Z,14.07
2019-04-22T03:45:14.747Z,15.55
2019-04-22T03:46:02.014Z,13.58
2019-04-22T03:47:17.637Z,14.58
2019-04-22T03:48:07.213Z,11.83
2019-04-22T03:49:30.821Z,13.98
2019-04-22T03:52:20.500Z,13.05
2019-04-22T03:53:33.630Z,12.20
2019-04-22T03:54:39.989Z,13.70
2019-04-22T03:55:38.454Z,14.83
2019-04-22T03:58:51.183Z,16.67
2019-04-22T04:03:04.666Z,15.10
2019-04-22T04:04:09.279Z,17.05
2019-04-22T04:04:58.803Z,14.03
2019-04-22T04:06:06.769Z,12.73
2019-04-22T04:07:22.147Z,15.10
2019-04-22T04:09:31.074Z,13.80
2019-04-22T04:11:30.346Z,13.78
2019-04-22T04:13:30.458Z,15.25
2019-04-22T04:14:37.960Z,11.08
2019-04-22T04:15:32.794Z,14.65
2019-04-22T04:16:48.054Z,14.43
2019-04-22T04:19:08.375Z,15.83
2019-04-22T04:21:06.106Z,14.73
2019-04-22T04:21:58.150Z,14.87
2019-04-22T04:23:24.336Z,16.60
2019-04-22T04:24:11.320Z,13.58
2019-04-22T04:25:24.965Z,15.53
2019-04-22T04:26:17.753Z,15.80
2019-04-22T04:28:55.325Z,11.40
2019-04-22T04:29:39.696Z,13.35
2019-04-22T04:32:36.440Z,11.73
2019-04-22T04:33:31.063Z,12.05
2019-04-22T04:37:46.974Z,14.00
2019-04-22T04:38:46.166Z,11.73
2019-04-22T04:39:53.519Z,13.48
2019-04-22T04:41:06.149Z,13.48
2019-04-22T04:42:08.811Z,12.70
2019-04-22T04:42:54.304Z,14.50
2019-04-22T04:44:02.940Z,12.63
2019-04-22T04:45:25.831Z,13.78
2019-04-22T04:46:09.969Z,14.70
2019-04-22T04:47:11.633Z,15.30
2019-04-22T04:50:12.297Z,13.58
2019-04-22T04:51:31.072Z,14.58
2019-04-22T04:54:31.866Z,14.03
2019-04-22T04:55:28.733Z,14.98
2019-04-22T04:56:36.245Z,11.40
2019-04-22T04:57:49.171Z,13.55
2019-04-22T05:00:11.140Z,14.05
2019-04-22T05:00:57.919Z,14.40
2019-04-22T05:04:04.735Z,13.85
2019-04-22T05:05:08.260Z,13.32
2019-04-22T05:06:05.894Z,15.40
2019-04-22T05:07:09.303Z,14.13
2019-04-22T05:08:01.114Z,12.90
2019-04-22T05:09:15.130Z,12.60
2019-04-22T05:10:24.002Z,15.38
2019-04-22T05:11:32.234Z,13.50
2019-04-22T05:13:22.968Z,15.18
2019-04-22T05:15:27.685Z,13.75
2019-04-22T05:16:36.484Z,13.98
2019-04-22T05:17:35.030Z,16.20
2019-04-22T05:18:37.353Z,12.82
2019-04-22T05:19:33.403Z,11.65
2019-04-22T05:20:53.376Z,13.50
2019-04-22T05:21:39.689Z,13.13
2019-04-22T05:24:56.515Z,12.98
2019-04-22T05:25:55.020Z,12.05
2019-04-22T05:26:56.811Z,12.33
2019-04-22T05:27:57.686Z,15.00
2019-04-22T05:29:05.424Z,14.73
2019-04-22T05:31:10.010Z,11.20
2019-04-22T05:32:14.097Z,12.18
2019-04-22T05:33:10.724Z,15.38
2019-04-22T05:34:19.350Z,12.75
2019-04-22T05:35:25.133Z,12.03
2019-04-22T05:36:20.722Z,12.35
2019-04-22T05:37:27.608Z,12.35
2019-04-22T05:38:34.495Z,15.13
2019-04-22T05:39:28.297Z,14.23
2019-04-22T05:40:30.717Z,12.13
2019-04-22T05:41:36.382Z,14.58
2019-04-22T05:42:39.456Z,15.75
2019-04-22T05:43:40.623Z,14.00
2019-04-22T05:44:50.976Z,12.37
2019-04-22T05:45:43.231Z,12.23
2019-04-22T05:46:47.901Z,11.03
2019-04-22T05:49:01.076Z,12.98
2019-04-22T05:49:55.186Z,11.60
2019-04-22T05:51:07.806Z,11.08
2019-04-22T05:52:05.176Z,12.50
2019-04-22T05:53:19.875Z,13.72
2019-04-22T05:54:15.635Z,14.85
2019-04-22T05:55:16.374Z,16.50
2019-04-22T05:56:28.058Z,12.60
2019-04-22T05:57:24.702Z,14.83
2019-04-22T05:58:22.522Z,13.50
2019-04-22T05:59:25.002Z,14.50
2019-04-22T06:00:59.996Z,12.93
2019-04-22T06:02:48.879Z,13.45
2019-04-22T06:03:46.100Z,15.60
2019-04-22T06:04:48.414Z,12.90
2019-04-22T06:05:47.645Z,13.18
2019-04-22T06:06:49.157Z,14.18
2019-04-22T06:07:55.409Z,11.90
2019-04-22T06:08:57.607Z,13.10
2019-04-22T06:10:08.354Z,13.18
2019-04-22T06:11:13.144Z,13.22
2019-04-22T06:12:04.892Z,15.32
2019-04-22T06:13:04.464Z,16.17
2019-04-22T06:14:16.686Z,14.65
2019-04-22T06:15:18.323Z,11.53
2019-04-22T06:16:29.190Z,11.93
2019-04-22T06:17:35.690Z,12.45
2019-04-22T06:18:33.448Z,12.75
2019-04-22T06:19:31.547Z,12.18
2019-04-22T06:20:36.944Z,14.60
2019-04-22T06:23:49.217Z,12.40
2019-04-22T06:24:49.353Z,13.65
2019-04-22T06:26:05.319Z,14.15
2019-04-22T06:27:06.476Z,14.28
2019-04-22T06:28:03.332Z,14.60
2019-04-22T06:29:01.395Z,12.20
2019-04-22T06:30:05.006Z,15.58
2019-04-22T06:31:10.669Z,15.28
2019-04-22T06:33:15.218Z,13.03
2019-04-22T06:35:37.975Z,15.45
2019-04-22T06:36:27.618Z,17.00
2019-04-22T06:37:27.356Z,14.98
2019-04-22T06:38:36.086Z,13.03
2019-04-22T06:39:46.728Z,14.70
2019-04-22T06:41:40.243Z,17.32
2019-04-22T06:42:42.755Z,16.52
2019-04-22T06:43:46.333Z,14.83
2019-04-22T06:44:52.692Z,14.43
2019-04-22T06:45:44.948Z,13.22
2019-04-22T06:46:52.318Z,13.75
2019-04-22T06:49:03.160Z,14.25
2019-04-22T06:50:04.164Z,13.38
2019-04-22T06:51:00.126Z,16.30
2019-04-22T06:52:14.189Z,13.13
2019-04-22T06:53:09.027Z,12.60
2019-04-22T06:54:17.626Z,12.95
2019-04-22T06:55:16.495Z,14.50
2019-04-22T06:56:15.891Z,13.93
2019-04-22T06:57:19.231Z,15.00
2019-04-22T06:58:22.035Z,13.20
2019-04-22T06:59:44.018Z,12.33
2019-04-22T07:00:30.565Z,11.78
2019-04-22T07:01:39.066Z,13.10
2019-04-22T07:03:50.569Z,11.95
2019-04-22T07:04:43.023Z,12.33
2019-04-22T07:05:46.351Z,11.93
2019-04-22T07:06:56.822Z,12.53
2019-04-22T07:07:53.706Z,14.15
2019-04-22T07:09:16.979Z,10.10
2019-04-22T07:10:09.597Z,11.22
2019-04-22T07:10:56.288Z,10.43
2019-04-22T07:12:04.756Z,12.00
2019-04-22T07:13:13.376Z,11.90
2019-04-22T07:15:24.485Z,10.82
2019-04-22T07:16:18.583Z,12.05
2019-04-22T07:17:26.240Z,10.95
2019-04-22T07:18:26.102Z,10.32
2019-04-22T07:19:32.201Z,11.83
2019-04-22T07:20:30.477Z,12.28
2019-04-22T07:21:30.594Z,11.83
2019-04-22T07:22:38.346Z,12.75
2019-04-22T07:23:44.723Z,11.60
2019-04-22T07:26:46.203Z,12.33
2019-04-22T07:27:52.715Z,9.68
2019-04-22T07:28:53.398Z,11.65
2019-04-22T07:30:01.920Z,11.12
2019-04-22T07:30:59.924Z,8.70
2019-04-22T07:32:03.471Z,9.73
2019-04-22T07:34:16.415Z,11.65
2019-04-22T07:35:19.414Z,9.20
2019-04-22T07:36:38.303Z,9.78
2019-04-22T07:37:27.834Z,11.65
2019-04-22T07:38:23.800Z,13.43
2019-04-22T07:39:23.141Z,12.45
2019-04-22T07:40:29.096Z,11.22
2019-04-22T07:41:31.803Z,9.95
2019-04-22T07:42:34.754Z,10.10
2019-04-22T07:43:53.168Z,10.48
2019-04-22T07:44:41.201Z,11.08
2019-04-22T07:45:42.744Z,9.65
2019-04-22T07:46:53.841Z,11.48
2019-04-22T07:47:56.738Z,11.73
2019-04-22T07:48:56.558Z,9.58
2019-04-22T07:50:18.445Z,8.78
2019-04-22T07:52:01.410Z,11.33
2019-04-22T07:53:08.364Z,10.40
2019-04-22T07:54:06.174Z,8.63
2019-04-22T07:55:07.125Z,9.98
2019-04-22T07:56:11.864Z,10.93
2019-04-22T07:57:20.191Z,10.58
2019-04-22T07:58:18.567Z,12.35
2019-04-22T07:59:23.563Z,12.03
2019-04-22T08:00:25.460Z,9.73
2019-04-22T08:01:26.893Z,9.18
2019-04-22T08:02:32.716Z,9.65
2019-04-22T08:03:37.648Z,11.18
2019-04-22T08:05:47.067Z,11.38
2019-04-22T08:06:46.036Z,12.10
2019-04-22T08:07:44.354Z,9.60
2019-04-22T08:08:46.411Z,10.03
2019-04-22T08:10:00.100Z,9.20
2019-04-22T08:10:56.749Z,10.28
2019-04-22T08:11:52.506Z,11.70
2019-04-22T08:13:01.746Z,11.30
2019-04-22T08:14:01.068Z,9.70
2019-04-22T08:15:06.054Z,9.60
2019-04-22T08:16:10.097Z,9.95
2019-04-22T08:17:43.494Z,9.08
2019-04-22T08:18:22.071Z,9.53
2019-04-22T08:19:22.766Z,9.03
2019-04-22T08:20:25.134Z,8.50
2019-04-22T08:21:16.583Z,10.03
2019-04-22T08:22:24.056Z,9.30
2019-04-22T08:23:33.947Z,10.43
2019-04-22T08:24:35.703Z,11.33
2019-04-22T08:25:41.525Z,8.45
2019-04-22T08:26:41.348Z,11.43
2019-04-22T08:27:42.864Z,8.93
2019-04-22T08:28:46.887Z,9.18
2019-04-22T08:29:53.495Z,9.35
2019-04-22T08:30:56.707Z,10.63
2019-04-22T08:31:54.763Z,11.22
2019-04-22T08:33:13.808Z,10.20
2019-04-22T08:34:01.779Z,10.13
2019-04-22T08:35:05.903Z,9.53
2019-04-22T08:36:10.838Z,12.03
2019-04-22T08:38:11.672Z,11.60
2019-04-22T08:39:21.725Z,11.30
2019-04-22T08:40:21.030Z,9.78
2019-04-22T08:41:28.910Z,10.55
2019-04-22T08:42:35.433Z,10.50
2019-04-22T08:43:38.092Z,12.90
2019-04-22T08:44:54.836Z,7.70
2019-04-22T08:45:38.934Z,11.00
2019-04-22T08:48:47.739Z,10.82
2019-04-22T08:49:56.899Z,10.13
2019-04-22T08:50:57.717Z,10.63
2019-04-22T08:51:50.751Z,11.75
2019-04-22T08:53:02.076Z,11.05
2019-04-22T08:54:13.665Z,10.18
2019-04-22T08:55:03.927Z,12.98
2019-04-22T08:56:21.552Z,8.38
2019-04-22T08:57:10.790Z,11.25
2019-04-22T08:58:25.122Z,9.83
2019-04-22T09:00:17.855Z,11.03
2019-04-22T09:01:22.677Z,9.98
2019-04-22T09:02:31.858Z,11.18
2019-04-22T09:03:28.412Z,11.50
2019-04-22T09:04:23.333Z,10.60
2019-04-22T09:06:49.443Z,8.70
2019-04-22T09:07:37.020Z,8.85
2019-04-22T09:08:42.426Z,9.48
2019-04-22T09:09:44.785Z,10.32
2019-04-22T09:10:55.604Z,9.93
2019-04-22T09:11:58.080Z,11.18
2019-04-22T09:13:00.876Z,10.80
2019-04-22T09:13:58.063Z,8.05
2019-04-22T09:15:16.297Z,10.70
2019-04-22T09:16:08.762Z,10.03
2019-04-22T09:17:22.667Z,12.33
2019-04-22T09:18:08.185Z,11.05
2019-04-22T09:19:26.595Z,10.32
2019-04-22T09:20:15.495Z,12.78
2019-04-22T09:21:24.026Z,9.40
2019-04-22T09:22:17.315Z,11.10
2019-04-22T09:23:30.294Z,10.40
2019-04-22T09:24:23.195Z,9.68
2019-04-22T09:25:29.758Z,9.58
2019-04-22T09:26:36.176Z,13.28
2019-04-22T09:27:48.488Z,12.07
2019-04-22T09:28:44.371Z,10.95
2019-04-22T09:29:42.968Z,10.95
2019-04-22T09:30:50.253Z,11.30
2019-04-22T09:31:56.936Z,11.88
2019-04-22T09:32:55.746Z,11.55
2019-04-22T09:33:53.377Z,9.75
2019-04-22T09:35:00.630Z,10.28
2019-04-22T09:36:12.802Z,11.05
2019-04-22T09:37:12.026Z,11.35
2019-04-22T09:38:20.759Z,9.35
2019-04-22T09:39:12.698Z,9.48
2019-04-22T09:40:15.652Z,9.85
2019-04-22T09:41:25.332Z,9.65
2019-04-22T09:42:18.802Z,11.43
2019-04-22T09:43:25.836Z,10.93
2019-04-22T09:44:34.760Z,11.85
2019-04-22T09:45:29.417Z,9.00
2019-04-22T09:46:42.577Z,9.80
2019-04-22T09:47:40.073Z,8.88
2019-04-22T09:48:44.115Z,9.75
2019-04-22T09:49:51.876Z,9.20
2019-04-22T09:50:47.680Z,11.95
2019-04-22T09:51:54.016Z,10.75
2019-04-22T09:52:57.693Z,10.65
2019-04-22T09:54:04.167Z,10.53
2019-04-22T09:56:03.686Z,12.20
2019-04-22T09:57:01.890Z,11.55
2019-04-22T09:58:09.355Z,10.82
2019-04-22T09:59:07.614Z,10.48
2019-04-22T10:00:13.959Z,9.80
2019-04-22T10:01:24.593Z,9.95
2019-04-22T10:02:26.382Z,9.23
2019-04-22T10:03:19.895Z,10.00
2019-04-22T10:04:25.333Z,11.55
2019-04-22T10:05:33.489Z,10.15
2019-04-22T10:06:35.682Z,8.65
2019-04-22T10:07:32.011Z,10.98
2019-04-22T10:08:43.554Z,11.75
2019-04-22T10:10:48.950Z,10.08
2019-04-22T10:12:02.717Z,10.15
2019-04-22T10:12:46.683Z,11.28
2019-04-22T10:14:01.972Z,11.33
2019-04-22T10:14:55.802Z,10.78
2019-04-22T10:16:02.974Z,9.88
2019-04-22T10:17:02.960Z,10.50
2019-04-22T10:18:04.116Z,10.18
2019-04-22T10:19:11.148Z,10.63
2019-04-22T10:20:14.961Z,13.62
2019-04-22T10:21:14.499Z,10.68
2019-04-22T10:22:23.870Z,8.80
2019-04-22T10:23:18.998Z,8.95
2019-04-22T10:24:18.910Z,9.00
2019-04-22T10:25:25.235Z,10.72
2019-04-22T10:26:35.161Z,10.32
2019-04-22T10:27:33.882Z,11.25
2019-04-22T10:28:41.129Z,9.60
2019-04-22T10:29:41.561Z,8.50
2019-04-22T10:30:47.321Z,9.60
2019-04-22T10:31:46.575Z,13.38
2019-04-22T10:32:52.673Z,10.82
2019-04-22T10:33:40.713Z,11.80
2019-04-22T10:34:38.793Z,9.13
2019-04-22T10:35:34.411Z,10.75
2019-04-22T10:36:35.597Z,8.60
2019-04-22T10:37:36.828Z,10.82
2019-04-22T10:38:37.881Z,8.75
2019-04-22T10:39:48.097Z,10.82
2019-04-22T10:40:44.832Z,9.93
2019-04-22T10:41:46.384Z,7.75
2019-04-22T10:42:47.652Z,8.43
2019-04-22T10:43:48.674Z,10.08
2019-04-22T10:44:50.329Z,9.68
2019-04-22T10:45:52.625Z,9.70
2019-04-22T10:46:53.905Z,9.35
2019-04-22T10:47:56.066Z,8.48
2019-04-22T10:48:57.972Z,9.63
2019-04-22T10:50:00.651Z,9.58
2019-04-22T10:51:01.901Z,10.72
2019-04-22T10:52:02.946Z,9.75
2019-04-22T10:53:04.048Z,8.75
2019-04-22T10:54:05.312Z,9.98
2019-04-22T10:55:07.587Z,11.18
2019-04-22T10:56:09.313Z,10.90
2019-04-22T10:57:10.874Z,10.40
2019-04-22T10:58:12.830Z,11.55
2019-04-22T10:59:14.393Z,11.65
2019-04-22T11:00:15.888Z,11.12
2019-04-22T11:01:17.885Z,11.30
2019-04-22T11:02:19.272Z,13.40
2019-04-22T11:03:20.464Z,10.90
2019-04-22T11:04:21.729Z,10.18
2019-04-22T11:05:24.084Z,10.30
2019-04-22T11:06:25.405Z,7.95
2019-04-22T11:07:37.311Z,11.03
2019-04-22T11:08:40.287Z,10.60
2019-04-22T11:09:34.104Z,11.83
2019-04-22T11:10:50.616Z,9.23
2019-04-22T11:11:48.755Z,11.08
2019-04-22T11:12:43.219Z,9.20
2019-04-22T11:13:44.425Z,10.35
2019-04-22T11:14:45.578Z,9.45
2019-04-22T11:15:46.877Z,11.43
2019-04-22T11:16:47.908Z,9.73
2019-04-22T11:17:49.551Z,11.50
2019-04-22T11:18:51.707Z,8.00
2019-04-22T11:19:53.331Z,9.23
2019-04-22T11:20:55.732Z,8.73
2019-04-22T11:22:06.929Z,12.10
2019-04-22T11:23:00.617Z,9.90
2019-04-22T11:24:02.974Z,10.30
2019-04-22T11:25:05.607Z,7.87
2019-04-22T11:26:08.115Z,11.15
2019-04-22T11:27:10.646Z,8.60
2019-04-22T11:28:11.892Z,11.93
2019-04-22T11:29:13.997Z,8.35
2019-04-22T11:30:19.015Z,9.93
2019-04-22T11:31:20.625Z,9.65
2019-04-22T11:32:22.343Z,10.72
2019-04-22T11:33:24.662Z,9.35
2019-04-22T11:34:26.919Z,11.40
2019-04-22T11:35:28.136Z,9.53
2019-04-22T11:36:30.844Z,11.05
2019-04-22T11:37:32.770Z,10.15
2019-04-22T11:38:38.937Z,10.75
2019-04-22T11:39:36.790Z,10.10
2019-04-22T11:40:42.218Z,10.20
2019-04-22T11:41:42.127Z,10.58
2019-04-22T11:42:43.899Z,10.50
2019-04-22T11:43:45.248Z,10.08
2019-04-22T11:44:47.495Z,10.78
2019-04-22T11:45:49.218Z,10.95
2019-04-22T11:46:51.682Z,8.90
2019-04-22T11:47:53.135Z,10.53
2019-04-22T11:48:54.232Z,9.88
2019-04-22T11:49:55.285Z,12.18
2019-04-22T11:50:57.759Z,7.75
2019-04-22T11:51:59.094Z,9.50
2019-04-22T11:53:00.761Z,10.13
2019-04-22T11:54:03.017Z,9.63
2019-04-22T11:55:06.683Z,9.33
2019-04-22T11:56:08.942Z,9.10
2019-04-22T11:57:10.815Z,9.85
2019-04-22T11:58:12.892Z,10.20
2019-04-22T11:59:15.033Z,11.10
2019-04-22T12:00:18.808Z,8.70
2019-04-22T12:01:20.967Z,8.80
2019-04-22T12:02:25.388Z,10.18
2019-04-22T12:03:28.585Z,9.95
2019-04-22T12:04:30.026Z,10.32
2019-04-22T12:05:32.224Z,9.60
2019-04-22T12:06:33.747Z,9.43
2019-04-22T12:07:36.649Z,9.28
2019-04-22T12:08:39.614Z,10.40
2019-04-22T12:09:41.864Z,9.18
2019-04-22T12:10:50.918Z,8.70
2019-04-22T12:11:46.846Z,8.83
2019-04-22T12:12:49.619Z,9.93
2019-04-22T12:13:51.833Z,8.28
2019-04-22T12:14:54.398Z,7.85
2019-04-22T12:15:55.652Z,9.80
2019-04-22T12:16:57.307Z,8.43
2019-04-22T12:17:59.324Z,9.53
2019-04-22T12:19:00.901Z,9.05
2019-04-22T12:20:08.715Z,10.60
2019-04-22T12:21:09.014Z,10.30
2019-04-22T12:22:11.077Z,10.10
2019-04-22T12:23:12.758Z,8.35
2019-04-22T12:24:15.189Z,10.90
2019-04-22T12:25:32.061Z,10.05
2019-04-22T12:26:24.945Z,10.93
2019-04-22T12:27:26.763Z,9.45
2019-04-22T12:28:28.849Z,10.25
2019-04-22T12:29:31.035Z,10.95
2019-04-22T12:30:33.410Z,10.45
2019-04-22T12:31:35.747Z,9.50
2019-04-22T12:32:36.956Z,10.40
2019-04-22T12:33:39.193Z,9.78
2019-04-22T12:34:41.677Z,11.33
2019-04-22T12:35:44.235Z,8.23
2019-04-22T12:36:46.856Z,9.58
2019-04-22T12:37:53.252Z,9.45
2019-04-22T12:38:51.440Z,9.10
2019-04-22T12:39:56.249Z,9.73
2019-04-22T12:41:00.677Z,10.03
2019-04-22T12:41:58.480Z,9.23
2019-04-22T12:43:04.157Z,8.95
2019-04-22T12:44:05.114Z,10.05
2019-04-22T12:45:08.271Z,8.93
2019-04-22T12:46:10.346Z,11.05
2019-04-22T12:47:12.993Z,9.53
2019-04-22T12:48:14.992Z,7.80
2019-04-22T12:49:16.401Z,8.00
2019-04-22T12:50:24.087Z,8.80
2019-04-22T12:51:22.917Z,9.48
2019-04-22T12:52:34.027Z,8.75
2019-04-22T12:53:28.034Z,10.08
2019-04-22T12:54:29.213Z,8.48
2019-04-22T12:55:30.348Z,9.85
2019-04-22T12:56:31.454Z,7.83
2019-04-22T12:57:32.705Z,10.72
2019-04-22T12:58:34.028Z,10.55
2019-04-22T12:59:35.405Z,9.35
2019-04-22T13:00:36.772Z,10.93
2019-04-22T13:01:38.899Z,10.53
2019-04-22T13:02:40.897Z,9.55
2019-04-22T13:03:42.596Z,8.25
2019-04-22T13:04:43.749Z,9.60
2019-04-22T13:05:45.166Z,10.70
2019-04-22T13:06:47.852Z,11.83
2019-04-22T13:07:49.582Z,10.23
2019-04-22T13:08:50.736Z,11.80
2019-04-22T13:09:51.752Z,11.75
2019-04-22T13:10:59.294Z,9.90
2019-04-22T13:11:57.078Z,9.45
2019-04-22T13:12:58.636Z,9.45
2019-04-22T13:14:00.950Z,8.50
2019-04-22T13:15:06.510Z,10.65
2019-04-22T13:16:09.001Z,11.88
2019-04-22T13:17:10.423Z,14.25
2019-04-22T13:18:19.256Z,10.00
2019-04-22T13:19:17.211Z,8.85
2019-04-22T13:20:20.086Z,9.05
2019-04-22T13:21:20.928Z,8.85
2019-04-22T13:22:23.145Z,12.15
2019-04-22T13:23:25.551Z,9.53
2019-04-22T13:24:27.975Z,11.05
2019-04-22T13:25:32.184Z,9.90
2019-04-22T13:26:32.078Z,11.30
2019-04-22T13:27:33.221Z,10.45
2019-04-22T13:28:34.641Z,9.55
2019-04-22T13:29:37.187Z,10.25
2019-04-22T13:30:38.675Z,9.40
2019-04-22T13:31:40.514Z,10.05
2019-04-22T13:32:42.913Z,9.05
2019-04-22T13:33:44.154Z,10.70
2019-04-22T13:34:49.774Z,9.40
2019-04-22T13:35:48.191Z,10.10
2019-04-22T13:36:50.340Z,8.68
2019-04-22T13:37:52.936Z,9.80
2019-04-22T13:38:55.222Z,9.55
2019-04-22T13:39:56.881Z,10.85
2019-04-22T13:41:12.221Z,11.25
2019-04-22T13:42:05.639Z,10.43
2019-04-22T13:43:04.902Z,9.83
2019-04-22T13:44:07.076Z,11.53
2019-04-22T13:45:09.674Z,9.00
2019-04-22T13:46:12.321Z,9.65
2019-04-22T13:47:30.797Z,8.78
2019-04-22T13:48:33.272Z,9.40
2019-04-22T13:49:53.981Z,10.40
2019-04-22T13:52:02.696Z,11.20
2019-04-22T13:54:30.003Z,9.18
2019-04-22T13:55:05.728Z,8.65
2019-04-22T13:56:05.559Z,10.55
2019-04-22T13:57:03.941Z,9.15
2019-04-22T13:57:58.272Z,10.48
2019-04-22T13:59:01.975Z,9.93
2019-04-22T13:59:57.651Z,13.03
2019-04-22T14:00:58.541Z,9.45
2019-04-22T14:02:08.651Z,10.85
2019-04-22T14:03:26.801Z,9.80
2019-04-22T14:04:36.835Z,9.45
2019-04-22T14:05:40.564Z,8.98
2019-04-22T14:06:42.883Z,10.25
2019-04-22T14:07:44.067Z,10.50
2019-04-22T14:08:45.405Z,8.95
2019-04-22T14:09:46.603Z,9.65
2019-04-22T14:10:48.419Z,8.53
2019-04-22T14:11:55.786Z,11.05
2019-04-22T14:12:52.924Z,9.93
2019-04-22T14:13:54.324Z,10.10
2019-04-22T14:14:56.334Z,9.63
2019-04-22T14:15:59.284Z,10.85
2019-04-22T14:17:00.715Z,8.45
2019-04-22T14:18:03.457Z,9.55
2019-04-22T14:19:05.672Z,12.03
2019-04-22T14:20:07.188Z,9.00
2019-04-22T14:21:09.109Z,11.95
2019-04-22T14:22:11.639Z,9.43
2019-04-22T14:23:14.279Z,10.70
2019-04-22T14:24:16.309Z,10.53
2019-04-22T14:25:18.917Z,12.20
2019-04-22T14:26:20.033Z,11.73
2019-04-22T14:27:30.648Z,9.58
2019-04-22T14:28:26.555Z,9.00
2019-04-22T14:29:26.904Z,10.23
2019-04-22T14:30:28.612Z,9.55
2019-04-22T14:31:30.757Z,12.90
2019-04-22T14:32:33.902Z,9.25
2019-04-22T14:33:36.241Z,11.35
2019-04-22T14:34:38.415Z,9.15
2019-04-22T14:35:39.916Z,8.95
2019-04-22T14:36:41.397Z,8.75
2019-04-22T14:37:42.583Z,10.70
2019-04-22T14:38:43.947Z,9.90
2019-04-22T14:39:46.074Z,10.25
2019-04-22T14:40:48.236Z,11.30
2019-04-22T14:42:08.355Z,9.38
2019-04-22T14:43:13.495Z,9.85
2019-04-22T14:44:59.473Z,9.78
2019-04-22T14:45:35.870Z,10.18
2019-04-22T14:46:27.478Z,11.33
2019-04-22T14:47:32.854Z,9.90
2019-04-22T14:48:41.937Z,10.78
2019-04-22T14:49:38.214Z,10.10
2019-04-22T14:50:38.792Z,10.35
2019-04-22T14:51:37.074Z,11.38
2019-04-22T14:52:46.346Z,9.88
2019-04-22T14:53:48.818Z,9.43
2019-04-22T14:54:44.620Z,11.53
2019-04-22T14:55:34.405Z,11.60
2019-04-22T14:56:34.254Z,10.05
2019-04-22T14:57:36.278Z,9.80
2019-04-22T14:58:38.453Z,10.60
2019-04-22T14:59:39.913Z,10.98
2019-04-22T15:00:42.392Z,11.12
2019-04-22T15:01:43.665Z,10.08
2019-04-22T15:02:46.003Z,10.75
2019-04-22T15:03:48.382Z,11.50
2019-04-22T15:04:50.079Z,11.15
2019-04-22T15:05:52.304Z,10.28
2019-04-22T15:06:54.740Z,9.68
2019-04-22T15:07:57.180Z,10.50
2019-04-22T15:08:59.625Z,13.83
2019-04-22T15:10:01.914Z,8.05
2019-04-22T15:11:04.505Z,9.95
2019-04-22T15:12:16.406Z,12.88
2019-04-22T15:13:09.523Z,10.08
2019-04-22T15:14:11.644Z,11.38
2019-04-22T15:15:15.533Z,8.35
2019-04-22T15:16:19.861Z,11.68
2019-04-22T15:17:42.834Z,11.33
2019-04-22T15:18:51.696Z,9.43
2019-04-22T15:20:11.900Z,11.03
2019-04-22T15:21:18.645Z,11.48